Time;durP1;ratioP1;P1;durP2;ratioP2;P2;SDS_P1;SDS_P2;PMS_P1;PMS_P2;Temp;Humidity;BMP_temperature;BMP_pressure;BME280_temperature;BME280_humidity;BME280_pressure;Samples;Min_cycle;Max_cycle;Signal;HPM_P1;HPM_P2
2021/06/01 00:00:23;;;;;;;5.83;4.30;;;9.60;99.90;;;;;;5031939;28;20224;-73
2021/06/01 00:02:48;;;;;;;4.20;3.80;;;9.60;99.90;;;;;;5032009;28;20631;-73
2021/06/01 00:05:14;;;;;;;4.10;3.80;;;9.50;99.90;;;;;;5031969;28;20630;-73
2021/06/01 00:07:41;;;;;;;4.17;3.77;;;9.50;99.90;;;;;;5031916;28;20223;-74
2021/06/01 00:10:07;;;;;;;4.47;3.80;;;9.40;99.90;;;;;;5031921;28;20409;-76
2021/06/01 00:12:34;;;;;;;4.70;3.33;;;9.40;99.90;;;;;;5031632;28;20267;-75
2021/06/01 00:14:59;;;;;;;3.90;3.50;;;9.40;99.90;;;;;;5014331;28;20901;-74
2021/06/01 00:17:25;;;;;;;4.43;3.30;;;9.30;99.90;;;;;;5031634;28;20455;-71
2021/06/01 00:19:50;;;;;;;4.93;3.40;;;9.30;99.90;;;;;;5032120;28;20181;-73
2021/06/01 00:22:16;;;;;;;4.00;3.70;;;9.20;99.90;;;;;;5031857;28;20239;-73
2021/06/01 00:24:41;;;;;;;3.70;2.97;;;9.20;99.90;;;;;;5031548;28;20177;-77
2021/06/01 00:27:07;;;;;;;4.23;3.83;;;9.10;99.90;;;;;;5031693;28;20185;-73
2021/06/01 00:29:33;;;;;;;4.90;3.80;;;9.10;99.90;;;;;;5031590;28;20615;-74
2021/06/01 00:31:58;;;;;;;3.83;3.50;;;9.00;99.90;;;;;;5031561;28;20204;-74
2021/06/01 00:34:24;;;;;;;4.73;4.40;;;9.00;99.90;;;;;;5031445;28;20264;-76
2021/06/01 00:36:49;;;;;;;4.90;3.83;;;9.00;99.90;;;;;;5031519;28;20280;-73
2021/06/01 00:39:15;;;;;;;3.80;3.60;;;9.00;99.90;;;;;;5031702;28;20326;-73
2021/06/01 00:41:41;;;;;;;4.17;3.87;;;8.90;99.90;;;;;;5031543;28;20178;-74
2021/06/01 00:44:06;;;;;;;3.90;3.60;;;8.90;99.90;;;;;;5031540;28;20178;-73
2021/06/01 00:46:33;;;;;;;4.30;3.80;;;8.90;99.90;;;;;;5031304;28;20173;-73
2021/06/01 00:48:59;;;;;;;3.80;3.53;;;8.90;99.90;;;;;;5031445;28;20186;-73
2021/06/01 00:51:24;;;;;;;4.57;4.17;;;8.80;99.90;;;;;;5031202;28;20403;-74
2021/06/01 00:53:50;;;;;;;4.27;3.87;;;8.80;99.90;;;;;;5031031;28;20548;-73
2021/06/01 00:56:15;;;;;;;6.20;3.93;;;8.80;99.90;;;;;;5031325;28;20174;-77
2021/06/01 00:58:41;;;;;;;5.60;3.10;;;8.70;99.90;;;;;;5031466;28;20703;-74
2021/06/01 01:01:18;;;;;;;4.53;4.13;;;8.70;99.90;;;;;;5031289;28;20172;-73
2021/06/01 01:03:44;;;;;;;5.87;4.77;;;8.60;99.90;;;;;;5031034;28;20184;-76
2021/06/01 01:06:37;;;;;;;4.33;3.93;;;8.60;99.90;;;;;;5031220;28;20424;-73
2021/06/01 01:09:10;;;;;;;5.20;4.50;;;8.60;99.90;;;;;;5031311;28;20197;-75
2021/06/01 01:12:02;;;;;;;3.90;3.60;;;8.50;99.90;;;;;;5031119;28;20617;-73
2021/06/01 01:14:33;;;;;;;11.10;3.67;;;8.50;99.90;;;;;;5030983;28;20426;-73
2021/06/01 01:17:03;;;;;;;4.57;3.40;;;8.40;99.90;;;;;;5031108;28;20490;-73
2021/06/01 01:20:01;;;;;;;3.70;3.40;;;8.40;99.90;;;;;;5030966;28;20944;-74
2021/06/01 01:22:28;;;;;;;3.97;3.67;;;8.30;99.90;;;;;;5030876;28;20418;-73
2021/06/01 01:24:57;;;;;;;3.57;3.33;;;8.30;99.90;;;;;;5030810;28;20413;-76
2021/06/01 01:27:29;;;;;;;4.13;3.63;;;8.30;99.90;;;;;;5031002;28;20419;-74
2021/06/01 01:29:56;;;;;;;3.97;3.60;;;8.30;99.90;;;;;;5030964;28;20416;-73
2021/06/01 01:32:48;;;;;;;3.37;3.17;;;8.20;99.90;;;;;;5033028;28;20460;-73
2021/06/01 01:35:15;;;;;;;4.10;3.80;;;8.20;99.90;;;;;;5035017;28;20888;-73
2021/06/01 01:37:41;;;;;;;4.00;3.70;;;8.20;99.90;;;;;;5034632;28;20410;-74
2021/06/01 01:40:08;;;;;;;4.17;3.87;;;8.10;99.90;;;;;;5034718;28;20916;-73
2021/06/01 01:42:44;;;;;;;5.63;3.40;;;8.10;99.90;;;;;;5016825;28;20429;-73
2021/06/01 01:45:17;;;;;;;3.77;3.47;;;8.10;99.90;;;;;;5034739;28;20898;-73
2021/06/01 01:50:12;;;;;;;4.60;4.30;;;8.10;99.90;;;;;;5017580;28;20488;-74
2021/06/01 01:52:39;;;;;;;5.10;3.90;;;8.00;99.90;;;;;;5034397;28;20458;-73
2021/06/01 01:55:08;;;;;;;4.00;3.27;;;8.00;99.90;;;;;;5016566;28;20488;-73
2021/06/01 01:57:36;;;;;;;3.60;3.33;;;7.90;99.90;;;;;;5034156;28;20409;-76
2021/06/01 02:00:06;;;;;;;4.33;3.10;;;7.90;99.90;;;;;;5016716;28;20461;-75
2021/06/01 02:02:32;;;;;;;4.10;3.80;;;7.90;99.90;;;;;;5034061;28;20477;-73
2021/06/01 02:04:58;;;;;;;3.60;3.30;;;7.80;99.90;;;;;;5034045;28;20413;-75
2021/06/01 02:07:23;;;;;;;4.17;3.80;;;7.80;99.90;;;;;;5034059;28;20657;-73
2021/06/01 02:09:49;;;;;;;3.57;3.37;;;7.80;99.90;;;;;;5034394;28;20199;-73
2021/06/01 02:12:15;;;;;;;3.57;3.27;;;7.80;99.90;;;;;;5034108;28;20235;-73
2021/06/01 02:14:41;;;;;;;4.17;3.87;;;7.70;99.90;;;;;;5034071;28;20232;-73
2021/06/01 02:17:06;;;;;;;5.30;4.30;;;7.70;99.90;;;;;;5034017;28;20410;-75
2021/06/01 02:19:32;;;;;;;4.90;3.90;;;7.60;99.90;;;;;;5033856;28;20193;-73
2021/06/01 02:24:51;;;;;;;4.37;4.00;;;7.60;99.90;;;;;;5034014;28;20184;-71
2021/06/01 02:27:49;;;;;;;4.67;4.20;;;7.60;99.90;;;;;;5033883;28;20417;-76
2021/06/01 02:30:22;;;;;;;4.00;3.60;;;7.50;99.90;;;;;;5033885;28;20411;-73
2021/06/01 02:32:54;;;;;;;4.07;3.63;;;7.50;99.90;;;;;;5033558;28;20456;-75
2021/06/01 02:35:28;;;;;;;4.70;4.20;;;7.50;99.90;;;;;;5033453;28;20409;-76
2021/06/01 02:37:57;;;;;;;3.57;3.27;;;7.50;99.90;;;;;;5033570;28;20466;-75
2021/06/01 02:40:23;;;;;;;3.90;3.27;;;7.50;99.90;;;;;;5033374;28;20460;-73
2021/06/01 02:42:49;;;;;;;3.97;3.67;;;7.50;99.90;;;;;;5032265;28;20422;-73
2021/06/01 02:45:19;;;;;;;4.90;4.20;;;7.40;99.90;;;;;;5015534;28;20622;-74
2021/06/01 02:47:45;;;;;;;4.00;3.63;;;7.40;99.90;;;;;;5015673;28;20485;-76
2021/06/01 02:50:14;;;;;;;4.30;3.30;;;7.30;99.90;;;;;;5033384;28;20789;-73
2021/06/01 02:52:41;;;;;;;5.70;3.77;;;7.30;99.90;;;;;;5032896;28;20515;-73
2021/06/01 02:55:08;;;;;;;3.90;3.60;;;7.30;99.90;;;;;;5033081;28;20451;-73
2021/06/01 02:57:34;;;;;;;6.13;4.80;;;7.20;99.90;;;;;;5033124;28;20416;-73
2021/06/01 03:00:00;;;;;;;7.63;4.27;;;7.30;99.90;;;;;;5033186;28;20783;-73
2021/06/01 03:02:26;;;;;;;6.47;4.73;;;7.20;99.90;;;;;;5032989;28;20206;-74
2021/06/01 03:04:53;;;;;;;4.43;4.13;;;7.20;99.90;;;;;;5032985;28;20419;-73
2021/06/01 03:07:19;;;;;;;4.63;4.20;;;7.20;99.90;;;;;;5032771;28;20430;-73
2021/06/01 03:09:45;;;;;;;4.73;4.33;;;7.20;99.90;;;;;;5033054;28;20436;-73
2021/06/01 03:14:55;;;;;;;4.67;4.27;;;7.10;99.90;;;;;;5033159;28;20261;-72
2021/06/01 03:17:21;;;;;;;4.80;4.47;;;7.10;99.90;;;;;;5032710;28;20824;-72
2021/06/01 03:19:46;;;;;;;5.00;4.60;;;7.00;99.90;;;;;;5033022;28;20201;-74
2021/06/01 03:22:12;;;;;;;4.00;3.60;;;7.00;99.90;;;;;;5014853;28;20269;-73
2021/06/01 03:24:37;;;;;;;4.47;4.07;;;7.00;99.90;;;;;;5015109;28;20178;-73
2021/06/01 03:27:03;;;;;;;4.90;3.90;;;7.00;99.90;;;;;;5032821;28;20178;-73
2021/06/01 03:29:29;;;;;;;4.70;4.30;;;7.00;99.90;;;;;;5014892;28;20234;-74
2021/06/01 03:31:55;;;;;;;6.53;4.70;;;7.00;99.90;;;;;;5032578;28;20413;-73
2021/06/01 03:34:22;;;;;;;5.03;4.53;;;7.00;99.90;;;;;;5032439;28;20179;-72
2021/06/01 03:36:48;;;;;;;4.57;4.20;;;7.00;99.90;;;;;;5032416;28;20561;-72
2021/06/01 03:39:13;;;;;;;4.73;4.10;;;6.90;99.90;;;;;;5032453;28;20471;-73
2021/06/01 03:41:39;;;;;;;4.93;4.53;;;6.90;99.90;;;;;;5032266;28;20523;-73
2021/06/01 03:44:05;;;;;;;4.77;4.23;;;6.90;99.90;;;;;;5032263;28;20675;-73
2021/06/01 03:46:30;;;;;;;4.93;4.33;;;6.90;99.90;;;;;;5014483;28;20186;-73
2021/06/01 03:48:55;;;;;;;4.13;3.73;;;6.90;99.90;;;;;;5032247;28;20199;-73
2021/06/01 03:51:21;;;;;;;4.67;4.13;;;6.90;99.90;;;;;;5032124;28;20186;-72
2021/06/01 03:53:49;;;;;;;4.90;4.37;;;6.90;99.90;;;;;;5014022;28;20673;-73
2021/06/01 03:56:15;;;;;;;6.40;5.40;;;7.00;99.90;;;;;;5032488;28;20177;-74
2021/06/01 03:58:41;;;;;;;5.90;4.80;;;7.00;99.90;;;;;;5014990;28;20469;-75
2021/06/01 04:01:06;;;;;;;5.40;4.60;;;7.00;99.90;;;;;;5031975;28;20191;-72
2021/06/01 04:03:36;;;;;;;5.13;4.60;;;7.10;99.90;;;;;;5031815;28;20187;-73
2021/06/01 04:06:02;;;;;;;5.47;4.37;;;7.10;99.90;;;;;;5031900;28;20222;-73
2021/06/01 04:08:27;;;;;;;7.30;4.60;;;7.10;99.90;;;;;;5031856;28;21010;-73
2021/06/01 04:10:53;;;;;;;7.60;4.80;;;7.20;99.90;;;;;;5031869;28;20183;-73
2021/06/01 04:13:18;;;;;;;5.20;4.87;;;7.20;99.90;;;;;;5031652;28;20217;-73
2021/06/01 04:15:44;;;;;;;5.37;4.43;;;7.30;99.90;;;;;;5013793;28;20306;-73
2021/06/01 04:18:09;;;;;;;5.20;4.80;;;7.30;99.90;;;;;;5014137;28;20208;-72
2021/06/01 04:20:35;;;;;;;8.10;6.50;;;7.40;99.90;;;;;;5031499;28;20180;-73
2021/06/01 04:23:00;;;;;;;11.90;4.93;;;7.50;99.90;;;;;;5031651;28;20268;-73
2021/06/01 04:25:26;;;;;;;6.20;4.80;;;7.50;99.90;;;;;;5031565;28;20183;-76
2021/06/01 04:27:51;;;;;;;5.90;5.40;;;7.60;99.90;;;;;;5031561;28;20207;-73
2021/06/01 04:30:18;;;;;;;5.53;4.77;;;7.60;99.90;;;;;;5031637;28;20197;-73
2021/06/01 04:32:43;;;;;;;6.20;4.70;;;7.70;99.90;;;;;;5031382;28;20564;-73
2021/06/01 04:35:09;;;;;;;6.07;5.47;;;7.80;99.90;;;;;;5031613;28;20557;-74
2021/06/01 04:37:35;;;;;;;5.10;4.70;;;7.90;99.90;;;;;;5031398;28;20181;-75
2021/06/01 04:40:01;;;;;;;5.50;5.00;;;8.00;99.90;;;;;;5031631;28;20517;-73
2021/06/01 04:42:26;;;;;;;6.00;5.40;;;8.10;99.90;;;;;;5031234;28;20189;-73
2021/06/01 04:44:52;;;;;;;4.93;4.33;;;8.20;99.90;;;;;;5031363;28;20804;-74
2021/06/01 04:47:17;;;;;;;4.67;4.27;;;8.30;99.90;;;;;;5031318;28;20571;-77
2021/06/01 04:49:43;;;;;;;8.10;5.37;;;8.50;99.90;;;;;;5031329;28;20300;-73
2021/06/01 04:52:08;;;;;;;6.40;5.47;;;8.60;99.90;;;;;;5031150;28;20203;-73
2021/06/01 04:54:34;;;;;;;5.60;4.73;;;8.80;99.90;;;;;;5030968;28;20189;-75
2021/06/01 04:56:59;;;;;;;6.20;5.50;;;9.00;99.90;;;;;;5031272;28;20164;-73
2021/06/01 04:59:25;;;;;;;5.63;4.77;;;9.20;99.90;;;;;;5031176;28;20193;-73
2021/06/01 05:01:50;;;;;;;4.00;3.67;;;10.20;99.90;;;;;;5031262;28;20166;-74
2021/06/01 05:04:16;;;;;;;6.37;4.80;;;13.20;99.90;;;;;;5030994;28;20547;-75
2021/06/01 05:06:42;;;;;;;4.20;3.80;;;16.60;99.90;;;;;;5032304;28;20170;-74
2021/06/01 05:09:07;;;;;;;4.10;3.07;;;19.70;99.90;;;;;;5035209;28;20240;-74
2021/06/01 05:11:33;;;;;;;3.90;3.60;;;22.00;99.90;;;;;;5035102;28;20178;-74
2021/06/01 05:13:58;;;;;;;4.23;3.83;;;23.60;99.90;;;;;;5035069;28;20566;-75
2021/06/01 05:16:24;;;;;;;5.93;4.30;;;24.90;99.90;;;;;;5035118;28;20170;-75
2021/06/01 05:18:50;;;;;;;6.87;4.40;;;26.20;99.90;;;;;;5035206;28;20202;-75
2021/06/01 05:21:16;;;;;;;5.33;4.27;;;26.20;98.70;;;;;;5017416;28;20260;-77
2021/06/01 05:23:41;;;;;;;7.53;4.70;;;26.20;97.60;;;;;;5034899;28;20232;-74
2021/06/01 05:26:07;;;;;;;7.20;4.40;;;26.50;96.80;;;;;;5034968;28;20682;-75
2021/06/01 05:28:34;;;;;;;6.43;4.60;;;26.60;95.80;;;;;;5034944;28;20212;-75
2021/06/01 05:31:22;;;;;;;5.20;4.33;;;27.00;94.90;;;;;;5034950;28;20621;-75
2021/06/01 05:33:53;;;;;;;6.80;4.77;;;26.40;95.10;;;;;;5034891;28;20983;-75
2021/06/01 05:36:19;;;;;;;9.03;3.93;;;26.40;94.70;;;;;;5034800;28;20470;-76
2021/06/01 05:38:44;;;;;;;4.10;3.80;;;26.00;94.30;;;;;;5034949;28;20429;-75
2021/06/01 05:41:10;;;;;;;6.20;5.33;;;25.70;93.80;;;;;;5034707;28;20257;-75
2021/06/01 05:43:37;;;;;;;14.03;5.63;;;24.50;94.80;;;;;;5034701;28;20185;-75
2021/06/01 05:46:03;;;;;;;5.53;4.83;;;23.60;95.90;;;;;;5034755;28;20560;-74
2021/06/01 05:48:28;;;;;;;8.33;5.67;;;22.90;96.80;;;;;;5034659;28;20432;-74
2021/06/01 05:50:56;;;;;;;6.60;5.90;;;22.20;97.50;;;;;;5034905;28;20364;-74
2021/06/01 05:53:23;;;;;;;8.10;5.43;;;22.00;97.90;;;;;;5034283;28;20202;-78
2021/06/01 05:55:49;;;;;;;8.30;5.70;;;21.50;98.70;;;;;;5034906;28;20429;-74
2021/06/01 05:58:14;;;;;;;6.03;5.37;;;21.20;99.70;;;;;;5034619;28;20825;-75
2021/06/01 06:00:40;;;;;;;4.60;4.30;;;20.90;99.60;;;;;;5034539;28;20177;-76
2021/06/01 06:03:06;;;;;;;6.73;5.37;;;21.00;99.90;;;;;;5034306;28;20679;-78
2021/06/01 06:05:31;;;;;;;6.40;5.27;;;21.10;99.80;;;;;;5034585;28;20420;-74
2021/06/01 06:08:14;;;;;;;7.33;4.30;;;21.10;99.90;;;;;;5034730;28;20204;-74
2021/06/01 06:10:44;;;;;;;6.27;4.20;;;21.30;99.90;;;;;;5034484;28;20221;-74
2021/06/01 06:13:11;;;;;;;6.00;3.60;;;21.50;99.30;;;;;;5034304;28;20800;-74
2021/06/01 06:15:36;;;;;;;13.37;4.30;;;21.40;99.10;;;;;;5034281;28;20474;-75
2021/06/01 06:18:06;;;;;;;4.23;3.57;;;21.50;99.00;;;;;;5034054;28;20429;-74
2021/06/01 06:20:33;;;;;;;5.60;4.20;;;21.70;99.90;;;;;;5034196;28;20178;-75
2021/06/01 06:22:59;;;;;;;6.50;4.13;;;21.40;98.40;;;;;;5034198;28;20421;-75
2021/06/01 06:25:25;;;;;;;5.27;4.17;;;21.70;99.20;;;;;;5016396;28;20504;-75
2021/06/01 06:27:50;;;;;;;8.67;5.00;;;21.90;98.60;;;;;;5034084;28;20676;-75
2021/06/01 06:30:16;;;;;;;9.77;4.27;;;21.90;98.80;;;;;;5033883;28;20462;-75
2021/06/01 06:32:42;;;;;;;5.43;3.80;;;22.00;98.20;;;;;;5035288;28;20288;-74
2021/06/01 06:35:08;;;;;;;5.40;4.00;;;21.70;97.60;;;;;;5034022;28;20748;-74
2021/06/01 06:37:35;;;;;;;5.13;4.10;;;21.80;98.60;;;;;;5033807;28;20199;-74
2021/06/01 06:40:01;;;;;;;5.40;3.67;;;22.00;97.30;;;;;;5016635;28;20814;-74
2021/06/01 06:42:27;;;;;;;4.50;3.67;;;21.80;98.10;;;;;;5033873;28;20427;-75
2021/06/01 06:44:53;;;;;;;4.77;4.10;;;22.10;96.70;;;;;;5033864;28;20408;-74
2021/06/01 06:49:46;;;;;;;4.50;4.17;;;22.20;97.10;;;;;;5033882;28;20520;-74
2021/06/01 06:52:12;;;;;;;7.30;4.03;;;22.20;96.50;;;;;;5015955;28;20544;-75
2021/06/01 06:54:38;;;;;;;7.33;4.40;;;22.40;96.50;;;;;;5033372;28;20201;-76
2021/06/01 06:57:05;;;;;;;4.13;3.80;;;22.30;95.90;;;;;;5015747;28;20174;-74
2021/06/01 06:59:30;;;;;;;7.93;4.13;;;22.20;96.20;;;;;;5015622;28;20433;-75
2021/06/01 07:01:56;;;;;;;4.00;3.70;;;22.40;95.90;;;;;;5015545;28;20419;-74
2021/06/01 07:04:22;;;;;;;4.73;3.87;;;22.50;96.30;;;;;;5033219;28;20249;-75
2021/06/01 07:06:48;;;;;;;4.60;4.20;;;22.30;96.30;;;;;;5033619;28;20178;-75
2021/06/01 07:09:14;;;;;;;8.40;4.60;;;22.40;97.60;;;;;;5033540;28;20192;-75
2021/06/01 07:11:41;;;;;;;4.13;3.83;;;22.80;96.60;;;;;;5033105;28;20447;-75
2021/06/01 07:14:31;;;;;;;8.20;4.33;;;23.20;96.30;;;;;;5033222;28;20484;-77
2021/06/01 07:16:57;;;;;;;9.33;4.23;;;23.00;96.80;;;;;;5033265;28;20444;-75
2021/06/01 07:19:23;;;;;;;4.20;3.80;;;23.30;96.40;;;;;;5033199;28;20786;-77
2021/06/01 07:21:48;;;;;;;4.50;4.10;;;23.30;94.90;;;;;;5033356;28;20262;-75
2021/06/01 07:24:14;;;;;;;4.20;3.80;;;23.10;94.60;;;;;;5033024;28;20171;-74
2021/06/01 07:26:39;;;;;;;3.67;3.30;;;23.40;94.60;;;;;;5032949;28;20785;-75
2021/06/01 07:29:05;;;;;;;4.40;3.20;;;23.30;94.70;;;;;;5032178;28;20281;-74
2021/06/01 07:31:31;;;;;;;4.20;3.37;;;23.30;94.50;;;;;;5032737;28;20205;-74
2021/06/01 07:33:56;;;;;;;3.80;2.80;;;23.50;94.10;;;;;;5032650;28;20233;-74
2021/06/01 07:36:22;;;;;;;5.20;3.30;;;23.80;93.80;;;;;;5032779;28;20170;-77
2021/06/01 07:38:48;;;;;;;4.07;3.77;;;23.80;92.90;;;;;;5032746;28;20194;-75
2021/06/01 07:41:13;;;;;;;3.93;3.20;;;23.50;93.00;;;;;;5032566;28;20914;-75
2021/06/01 07:43:39;;;;;;;3.37;3.17;;;23.40;93.60;;;;;;5032603;28;20300;-75
2021/06/01 07:46:05;;;;;;;2.97;2.73;;;23.90;93.40;;;;;;5032615;28;20256;-75
2021/06/01 07:48:34;;;;;;;5.90;2.77;;;23.90;93.30;;;;;;5032603;28;20212;-75
2021/06/01 07:51:00;;;;;;;3.47;2.43;;;23.60;92.40;;;;;;5032532;28;20413;-74
2021/06/01 07:53:26;;;;;;;4.20;2.73;;;23.40;91.80;;;;;;5032295;28;20594;-74
2021/06/01 07:55:53;;;;;;;3.37;3.10;;;23.40;92.10;;;;;;5032276;28;20656;-75
2021/06/01 07:58:19;;;;;;;7.33;2.70;;;23.60;92.70;;;;;;5032387;28;20210;-74
2021/06/01 08:00:45;;;;;;;4.13;3.10;;;23.70;92.20;;;;;;5014399;28;21244;-75
2021/06/01 08:03:10;;;;;;;8.20;3.30;;;24.20;93.10;;;;;;4998150;28;20428;-74
2021/06/01 08:05:36;;;;;;;2.70;2.00;;;24.30;92.10;;;;;;5031999;28;20212;-76
2021/06/01 08:08:01;;;;;;;7.63;2.20;;;24.40;89.00;;;;;;5032263;28;20202;-74
2021/06/01 08:10:28;;;;;;;1.83;1.60;;;24.50;90.40;;;;;;5032213;28;20669;-75
2021/06/01 08:12:54;;;;;;;3.93;1.97;;;24.40;86.80;;;;;;5031967;28;20206;-74
2021/06/01 08:15:22;;;;;;;2.70;2.23;;;24.50;86.70;;;;;;5032137;28;20440;-74
2021/06/01 08:17:53;;;;;;;4.70;2.30;;;24.20;84.00;;;;;;5031894;28;20536;-74
2021/06/01 08:20:41;;;;;;;2.37;1.90;;;24.30;84.90;;;;;;5032043;28;20850;-75
2021/06/01 08:23:07;;;;;;;2.40;2.20;;;24.10;84.40;;;;;;5031738;28;20922;-75
2021/06/01 08:25:32;;;;;;;3.20;2.40;;;24.20;82.50;;;;;;5031947;28;20423;-74
2021/06/01 08:27:58;;;;;;;2.80;1.97;;;24.30;83.60;;;;;;5031813;28;20601;-75
2021/06/01 08:30:25;;;;;;;3.63;1.90;;;24.50;82.10;;;;;;5031800;28;20268;-74
2021/06/01 08:32:50;;;;;;;3.17;1.90;;;24.90;82.00;;;;;;5031511;28;20683;-74
2021/06/01 08:35:16;;;;;;;2.43;2.23;;;24.40;79.70;;;;;;5031895;28;20423;-77
2021/06/01 08:37:42;;;;;;;1.77;1.67;;;24.30;80.80;;;;;;5013878;28;20575;-77
2021/06/01 08:40:08;;;;;;;2.33;2.13;;;24.40;81.90;;;;;;5031861;28;20232;-74
2021/06/01 08:42:41;;;;;;;8.70;2.20;;;24.90;81.70;;;;;;5013748;28;20186;-76
2021/06/01 08:45:08;;;;;;;2.40;2.23;;;25.20;81.50;;;;;;5031592;28;20425;-75
2021/06/01 08:47:34;;;;;;;3.30;1.93;;;25.50;80.80;;;;;;5031492;28;20413;-74
2021/06/01 08:50:04;;;;;;;2.23;2.03;;;25.20;81.10;;;;;;5031718;28;20932;-74
2021/06/01 08:52:29;;;;;;;1.77;1.67;;;25.60;81.80;;;;;;5031611;28;20453;-74
2021/06/01 08:54:56;;;;;;;4.13;2.40;;;25.90;81.00;;;;;;5031288;28;20535;-75
2021/06/01 08:57:21;;;;;;;2.37;2.17;;;26.00;78.60;;;;;;5031241;28;20174;-74
2021/06/01 08:59:47;;;;;;;5.30;2.10;;;26.00;78.80;;;;;;5031375;28;20527;-75
2021/06/01 09:02:19;;;;;;;2.40;2.30;;;26.30;80.00;;;;;;5031555;28;20690;-74
2021/06/01 09:04:59;;;;;;;1.40;1.30;;;27.00;76.80;;;;;;5031246;28;20180;-77
2021/06/01 09:13:58;;;;;;;3.33;2.60;;;27.50;75.00;;;;;;5031223;28;20506;-73
2021/06/01 09:21:46;;;;;;;2.23;2.03;;;27.20;74.40;;;;;;5012121;28;20482;-74
2021/06/01 09:24:13;;;;;;;2.23;2.13;;;26.70;75.10;;;;;;5014354;28;20439;-74
2021/06/01 09:26:59;;;;;;;2.77;2.33;;;26.70;75.10;;;;;;5031387;28;20415;-74
2021/06/01 09:29:26;;;;;;;4.40;2.23;;;26.10;74.10;;;;;;5031387;28;20512;-75
2021/06/01 09:32:10;;;;;;;2.30;2.10;;;26.60;78.20;;;;;;5013552;28;20492;-74
2021/06/01 09:34:42;;;;;;;2.70;2.03;;;26.80;72.90;;;;;;5031266;28;20412;-76
2021/06/01 09:37:23;;;;;;;2.03;1.73;;;27.20;74.80;;;;;;5031440;28;20767;-76
2021/06/01 09:40:06;;;;;;;3.00;1.70;;;27.30;73.20;;;;;;5013525;28;20437;-74
2021/06/01 09:42:33;;;;;;;2.80;1.90;;;27.00;72.70;;;;;;5030814;28;20504;-74
2021/06/01 09:45:12;;;;;;;2.20;2.10;;;27.00;71.30;;;;;;5031147;28;20518;-74
2021/06/01 09:47:41;;;;;;;2.10;2.00;;;26.90;70.60;;;;;;5013153;28;20487;-74
2021/06/01 09:51:02;;;;;;;2.13;2.03;;;27.20;70.70;;;;;;5031355;28;20444;-74
2021/06/01 09:53:05;;;;;;;2.70;2.03;;;26.60;69.00;;;;;;5018625;28;20468;-74
2021/06/01 09:55:35;;;;;;;2.00;1.80;;;26.90;69.90;;;;;;5034900;28;20456;-75
2021/06/01 09:58:04;;;;;;;2.23;2.13;;;26.80;71.40;;;;;;5034679;28;20464;-74
2021/06/01 10:00:31;;;;;;;2.53;2.33;;;27.00;73.50;;;;;;5034760;28;20420;-74
2021/06/01 10:03:01;;;;;;;3.70;1.80;;;27.70;71.40;;;;;;5016730;28;20422;-75
2021/06/01 10:05:31;;;;;;;2.13;1.93;;;28.00;69.70;;;;;;5034543;28;20470;-75
2021/06/01 10:08:03;;;;;;;2.63;2.43;;;27.90;70.70;;;;;;5034524;28;20428;-77
2021/06/01 10:10:32;;;;;;;3.90;2.30;;;27.00;71.00;;;;;;5016587;28;20420;-74
2021/06/01 10:13:00;;;;;;;2.90;2.37;;;26.60;71.00;;;;;;5033997;28;20842;-74
2021/06/01 10:15:28;;;;;;;2.43;2.23;;;27.00;72.70;;;;;;5034131;28;20409;-74
2021/06/01 10:17:54;;;;;;;1.57;1.47;;;27.20;72.00;;;;;;5016621;28;20528;-75
2021/06/01 10:20:22;;;;;;;2.17;1.93;;;27.40;69.00;;;;;;5034349;28;20543;-77
2021/06/01 10:22:49;;;;;;;2.33;2.10;;;27.00;67.80;;;;;;5033958;28;20185;-74
2021/06/01 10:25:16;;;;;;;1.80;1.70;;;26.40;69.70;;;;;;5034111;28;20489;-74
2021/06/01 10:27:43;;;;;;;2.60;1.90;;;26.40;68.40;;;;;;5034219;28;21037;-74
2021/06/01 10:30:11;;;;;;;4.20;1.30;;;26.90;70.50;;;;;;5034030;28;20420;-74
2021/06/01 10:32:48;;;;;;;3.17;2.40;;;27.10;70.10;;;;;;5033670;28;20802;-74
2021/06/01 10:35:19;;;;;;;9.63;2.13;;;27.10;69.70;;;;;;5034065;28;20414;-74
2021/06/01 10:48:55;;;;;;;2.33;2.13;;;26.60;70.10;;;;;;5033731;28;20428;-74
2021/06/01 10:51:27;;;;;;;2.13;1.70;;;26.80;68.40;;;;;;5033447;28;20910;-75
2021/06/01 10:53:53;;;;;;;3.10;1.80;;;26.50;67.90;;;;;;5033987;28;20518;-74
2021/06/01 10:56:19;;;;;;;2.00;1.90;;;26.40;71.00;;;;;;5033677;28;20429;-74
2021/06/01 10:58:46;;;;;;;2.30;2.10;;;26.60;67.60;;;;;;5033436;28;20575;-77
2021/06/01 11:04:37;;;;;;;2.67;2.47;;;26.50;68.70;;;;;;5032376;28;20470;-73
2021/06/01 11:09:36;;;;;;;2.07;1.90;;;26.70;68.70;;;;;;5033308;28;20467;-75
2021/06/01 11:12:26;;;;;;;3.17;2.23;;;26.60;68.20;;;;;;5033311;28;20813;-74
2021/06/01 11:14:55;;;;;;;2.23;2.13;;;26.20;67.30;;;;;;5033187;28;20412;-74
2021/06/01 11:17:43;;;;;;;2.10;1.80;;;25.70;68.50;;;;;;5033390;28;20405;-73
2021/06/01 11:20:33;;;;;;;1.93;1.83;;;25.50;67.10;;;;;;5033210;28;20437;-74
2021/06/01 11:23:11;;;;;;;2.50;2.30;;;25.80;67.80;;;;;;5032905;28;20918;-73
2021/06/01 11:33:51;;;;;;;2.23;2.13;;;25.90;69.00;;;;;;5032648;28;20598;-74
2021/06/01 11:36:19;;;;;;;2.73;2.17;;;25.50;69.80;;;;;;5032748;28;20417;-75
2021/06/01 11:43:44;;;;;;;2.30;2.20;;;25.10;69.00;;;;;;5032649;28;20462;-73
2021/06/01 11:51:23;;;;;;;3.47;2.20;;;24.60;68.40;;;;;;5032241;28;20455;-76
2021/06/01 11:54:13;;;;;;;2.33;2.07;;;24.70;69.50;;;;;;5032085;28;20468;-74
2021/06/01 11:57:03;;;;;;;2.10;1.90;;;24.50;68.00;;;;;;5031993;28;20463;-74
2021/06/01 12:02:25;;;;;;;3.87;2.20;;;24.40;68.90;;;;;;5032191;28;20459;-76
2021/06/01 12:18:40;;;;;;;6.40;2.07;;;24.90;71.70;;;;;;5031902;28;20435;-74
2021/06/01 12:21:19;;;;;;;2.43;2.23;;;24.80;71.20;;;;;;5014445;28;20784;-74
2021/06/01 12:23:57;;;;;;;1.57;1.47;;;24.70;69.00;;;;;;5031825;28;21269;-75
2021/06/01 12:32:01;;;;;;;2.30;2.07;;;24.50;70.40;;;;;;5033193;28;20424;-74
2021/06/01 12:41:41;;;;;;;8.10;2.30;;;24.70;67.80;;;;;;5031872;28;20393;-76
2021/06/01 12:43:15;;;;;;;2.10;2.00;;;24.60;67.40;;;;;;5031794;28;20423;-74
2021/06/01 13:08:47;;;;;;;4.53;2.30;;;24.00;71.10;;;;;;5031301;28;20429;-74
2021/06/01 13:19:50;;;;;;;2.13;2.03;;;24.10;71.80;;;;;;5031519;28;20427;-74
2021/06/01 13:36:32;;;;;;;2.20;2.10;;;24.10;71.10;;;;;;5035315;28;20489;-74
2021/06/01 13:39:08;;;;;;;3.27;2.20;;;24.10;70.20;;;;;;5034980;28;20463;-74
2021/06/01 13:47:09;;;;;;;2.30;2.10;;;23.90;72.40;;;;;;5035289;28;20423;-74
2021/06/01 13:49:48;;;;;;;2.50;2.30;;;24.20;73.20;;;;;;5034856;28;20433;-72
2021/06/01 13:55:10;;;;;;;2.33;2.23;;;24.40;71.70;;;;;;5034425;28;20519;-77
2021/06/01 14:11:22;;;;;;;2.30;2.00;;;24.60;71.10;;;;;;5034408;28;20415;-75
2021/06/01 14:19:27;;;;;;;2.10;1.70;;;24.20;70.50;;;;;;5035690;28;20558;-74
2021/06/01 14:38:08;;;;;;;3.10;1.90;;;23.90;71.00;;;;;;5033912;28;20487;-75
2021/06/01 15:07:28;;;;;;;2.10;2.00;;;24.20;71.60;;;;;;5032577;28;20940;-74
2021/06/01 16:14:03;;;;;;;2.90;2.03;;;23.80;71.00;;;;;;5032013;28;20460;-77
2021/06/01 16:21:23;;;;;;;2.13;1.93;;;23.70;68.60;;;;;;5032117;28;20451;-74
2021/06/01 16:43:39;;;;;;;2.50;2.20;;;23.60;69.90;;;;;;5031693;28;20462;-75
2021/06/01 17:05:45;;;;;;;16.53;2.00;;;23.30;68.80;;;;;;5031637;28;20424;-78
2021/06/01 17:11:14;;;;;;;4.53;2.60;;;23.20;68.10;;;;;;5031542;28;20861;-74
2021/06/01 17:13:57;;;;;;;5.03;1.90;;;23.30;68.90;;;;;;5031016;28;21266;-74
2021/06/01 17:16:46;;;;;;;3.83;2.00;;;23.20;68.70;;;;;;5031360;28;20853;-76
2021/06/01 17:35:29;;;;;;;2.00;1.90;;;23.00;70.90;;;;;;5002648;28;20428;-74
2021/06/01 17:37:54;;;;;;;2.50;2.13;;;22.90;70.60;;;;;;5031197;28;20527;-74
2021/06/01 17:40:21;;;;;;;2.50;1.97;;;22.90;71.60;;;;;;5031002;28;20499;-74
2021/06/01 17:42:59;;;;;;;4.27;3.17;;;22.80;71.90;;;;;;5030887;28;20265;-74
2021/06/01 17:45:25;;;;;;;3.67;2.50;;;22.80;71.60;;;;;;5030983;28;20948;-74
2021/06/01 17:47:57;;;;;;;5.00;2.30;;;22.70;71.10;;;;;;5031132;28;20413;-74
2021/06/01 17:50:24;;;;;;;4.53;1.83;;;22.70;71.80;;;;;;5031062;28;20256;-75
2021/06/01 17:52:54;;;;;;;3.50;1.83;;;22.70;69.90;;;;;;5030661;28;20565;-74
2021/06/01 17:55:22;;;;;;;2.70;2.50;;;22.70;70.20;;;;;;5013111;28;20437;-73
2021/06/01 17:57:49;;;;;;;2.30;2.20;;;22.60;70.40;;;;;;5030778;28;20405;-76
2021/06/01 18:00:16;;;;;;;2.50;2.30;;;22.60;70.50;;;;;;5030814;28;20424;-74
2021/06/01 18:02:44;;;;;;;5.13;2.50;;;22.50;70.40;;;;;;5028326;28;20447;-75
2021/06/01 18:05:13;;;;;;;2.30;2.10;;;22.50;71.00;;;;;;5022663;28;20459;-74
2021/06/01 18:08:02;;;;;;;3.33;1.87;;;22.40;71.70;;;;;;5012753;28;20436;-77
2021/06/01 18:29:13;;;;;;;2.63;2.13;;;22.30;72.50;;;;;;5031073;28;21019;-73
2021/06/01 19:22:40;;;;;;;3.80;2.97;;;20.20;79.30;;;;;;5033176;28;20416;-75
2021/06/01 19:24:59;;;;;;;5.87;3.80;;;20.10;80.20;;;;;;5031977;28;20781;-75
2021/06/01 19:28:03;;;;;;;3.43;3.13;;;19.90;82.30;;;;;;5033166;28;20404;-76
2021/06/01 19:52:20;;;;;;;3.87;2.83;;;17.90;92.70;;;;;;5032771;28;20443;-76
2021/06/01 19:54:47;;;;;;;5.40;3.90;;;17.70;93.20;;;;;;5014087;28;20506;-72
2021/06/01 19:57:13;;;;;;;6.50;2.47;;;17.50;93.80;;;;;;5032443;28;20503;-72
2021/06/01 19:59:39;;;;;;;4.50;3.00;;;17.40;95.00;;;;;;5031978;28;20473;-73